Time;durP1;ratioP1;P1;durP2;ratioP2;P2;SDS_P1;SDS_P2;PMS_P1;PMS_P2;Temp;Humidity;BMP_temperature;BMP_pressure;BME280_temperature;BME280_humidity;BME280_pressure;Samples;Min_cycle;Max_cycle;Signal;HPM_P1;HPM_P2
2023/08/29 00:01:44;;;;;;;;;;;;;;;17.00;100.00;98255.34;4936434;29;19927;-77
2023/08/29 00:04:09;;;;;;;;;;;;;;;17.03;100.00;98257.56;4936076;29;19927;-79
2023/08/29 00:06:35;;;;;;;;;;;;;;;17.09;100.00;98254.03;4937205;29;19930;-78
2023/08/29 00:09:01;;;;;;;;;;;;;;;17.05;100.00;98245.66;4935699;29;19981;-79
2023/08/29 00:11:27;;;;;;;;;;;;;;;17.05;100.00;98242.19;4937012;29;20287;-79
2023/08/29 00:13:53;;;;;;;;;;;;;;;17.01;100.00;98241.00;4936357;29;19929;-78
2023/08/29 00:16:18;;;;;;;;;;;;;;;17.02;100.00;98239.97;4936769;29;19982;-79
2023/08/29 00:18:43;;;;;;;;;;;;;;;17.08;100.00;98231.09;4935654;29;19945;-78
2023/08/29 00:21:09;;;;;;;;;;;;;;;17.01;100.00;98219.66;4936259;29;19923;-77
2023/08/29 00:23:35;;;;;;;;;;;;;;;17.03;100.00;98221.06;4936528;29;20014;-78
2023/08/29 00:26:01;;;;;;;;;;;;;;;16.99;100.00;98221.72;4936782;29;19938;-79
2023/08/29 00:28:26;;;;;;;;;;;;;;;16.94;100.00;98219.72;4937044;29;20392;-79
2023/08/29 00:30:53;;;;;;;;;;;;;;;16.92;100.00;98226.28;4934216;29;20352;-78
2023/08/29 00:33:20;;;;;;;;;;;;;;;16.95;100.00;98225.88;4935352;29;20183;-79
2023/08/29 00:35:48;;;;;;;;;;;;;;;16.92;100.00;98226.28;4935480;29;20340;-79
2023/08/29 00:38:14;;;;;;;;;;;;;;;16.75;100.00;98221.47;4935245;29;19926;-77
2023/08/29 00:40:39;;;;;;;;;;;;;;;16.71;100.00;98214.94;4936434;29;19923;-79
2023/08/29 00:43:04;;;;;;;;;;;;;;;16.63;100.00;98207.19;4935820;29;19927;-79
2023/08/29 00:45:31;;;;;;;;;;;;;;;16.57;100.00;98202.69;4936644;29;19929;-78
2023/08/29 00:47:57;;;;;;;;;;;;;;;16.55;100.00;98198.63;4935435;29;19923;-78
2023/08/29 00:50:25;;;;;;;;;;;;;;;16.48;100.00;98203.97;4935127;29;20284;-77
2023/08/29 00:52:54;;;;;;;;;;;;;;;16.47;100.00;98197.03;4934994;29;20359;-77
2023/08/29 00:55:20;;;;;;;;;;;;;;;16.50;100.00;98201.09;4935949;29;19923;-77
2023/08/29 00:57:45;;;;;;;;;;;;;;;16.51;100.00;98198.22;4933490;29;19949;-77
2023/08/29 01:00:12;;;;;;;;;;;;;;;16.54;100.00;98200.47;4932767;29;19927;-78
2023/08/29 01:02:37;;;;;;;;;;;;;;;16.64;100.00;98216.81;4933194;29;19922;-78
2023/08/29 01:05:03;;;;;;;;;;;;;;;16.62;100.00;98226.88;4934881;29;20378;-78
2023/08/29 01:07:29;;;;;;;;;;;;;;;16.67;100.00;98226.25;4941798;29;19922;-78
2023/08/29 01:09:55;;;;;;;;;;;;;;;16.70;100.00;98228.47;4942505;29;19929;-79
2023/08/29 01:12:20;;;;;;;;;;;;;;;16.71;100.00;98230.94;4942542;29;19986;-79
2023/08/29 01:15:00;;;;;;;;;;;;;;;16.71;100.00;98230.09;4942169;29;19923;-79
2023/08/29 01:17:31;;;;;;;;;;;;;;;16.75;100.00;98248.09;4942182;29;19923;-80
2023/08/29 01:19:58;;;;;;;;;;;;;;;16.83;100.00;98248.88;4941939;29;20249;-79
2023/08/29 01:22:24;;;;;;;;;;;;;;;16.88;100.00;98251.72;4941400;29;19974;-79
2023/08/29 01:24:58;;;;;;;;;;;;;;;16.92;100.00;98242.25;4939972;29;20372;-78
2023/08/29 01:27:25;;;;;;;;;;;;;;;16.93;100.00;98250.06;4941406;29;19927;-78
2023/08/29 01:29:51;;;;;;;;;;;;;;;16.87;100.00;98239.44;4939638;29;19922;-78
2023/08/29 01:32:16;;;;;;;;;;;;;;;16.85;100.00;98225.53;4940017;29;20394;-78
2023/08/29 01:34:43;;;;;;;;;;;;;;;16.85;100.00;98230.84;4940254;29;20449;-79
2023/08/29 01:37:09;;;;;;;;;;;;;;;16.83;100.00;98230.25;4937734;29;20352;-78
2023/08/29 01:39:36;;;;;;;;;;;;;;;16.77;100.00;98232.72;4939314;29;19930;-77
2023/08/29 01:42:02;;;;;;;;;;;;;;;16.79;100.00;98243.97;4922012;29;19923;-78
2023/08/29 01:44:28;;;;;;;;;;;;;;;16.85;100.00;98252.16;4939701;29;19923;-77
2023/08/29 01:46:53;;;;;;;;;;;;;;;16.91;100.00;98261.94;4939224;29;19923;-77
2023/08/29 01:49:19;;;;;;;;;;;;;;;16.95;100.00;98268.50;4939924;29;20027;-78
2023/08/29 01:51:45;;;;;;;;;;;;;;;16.93;100.00;98259.88;4922522;29;19929;-78
2023/08/29 01:54:11;;;;;;;;;;;;;;;16.91;100.00;98269.94;4939317;29;20363;-79
2023/08/29 01:56:39;;;;;;;;;;;;;;;16.94;100.00;98272.19;4939604;29;19923;-79
2023/08/29 01:59:06;;;;;;;;;;;;;;;16.94;100.00;98266.84;4918546;29;19922;-77
2023/08/29 02:01:32;;;;;;;;;;;;;;;16.97;100.00;98264.56;4939563;29;19959;-78
2023/08/29 02:03:57;;;;;;;;;;;;;;;16.91;100.00;98267.28;4937727;29;19950;-77
2023/08/29 02:06:23;;;;;;;;;;;;;;;16.88;100.00;98262.38;4938263;29;20379;-78
2023/08/29 02:08:48;;;;;;;;;;;;;;;16.79;100.00;98278.59;4937835;29;19954;-77
2023/08/29 02:11:13;;;;;;;;;;;;;;;16.81;100.00;98282.91;4921886;29;19922;-78
2023/08/29 02:13:39;;;;;;;;;;;;;;;16.83;100.00;98286.19;4939461;29;19923;-78
2023/08/29 02:16:04;;;;;;;;;;;;;;;16.89;100.00;98272.00;4939195;29;19954;-79
2023/08/29 02:18:30;;;;;;;;;;;;;;;16.92;100.00;98292.88;4934498;29;20368;-78
2023/08/29 02:20:55;;;;;;;;;;;;;;;16.92;100.00;98279.56;4936147;29;19923;-78
2023/08/29 02:23:21;;;;;;;;;;;;;;;16.81;100.00;98288.25;4935698;29;20052;-78
2023/08/29 02:25:46;;;;;;;;;;;;;;;16.76;100.00;98273.72;4936139;29;19951;-77
2023/08/29 02:28:12;;;;;;;;;;;;;;;16.77;100.00;98283.34;4935905;29;19957;-79
2023/08/29 02:30:38;;;;;;;;;;;;;;;16.78;100.00;98281.50;4936369;29;19938;-77
2023/08/29 02:33:04;;;;;;;;;;;;;;;16.84;100.00;98282.50;4935790;29;19923;-78
2023/08/29 02:35:29;;;;;;;;;;;;;;;16.76;100.00;98287.03;4936209;29;19922;-78
2023/08/29 02:37:55;;;;;;;;;;;;;;;16.80;100.00;98287.41;4934640;29;19937;-78
2023/08/29 02:40:23;;;;;;;;;;;;;;;16.70;100.00;98290.56;4934497;29;19974;-79
2023/08/29 02:42:49;;;;;;;;;;;;;;;16.77;100.00;98293.19;4934594;29;20455;-77
2023/08/29 02:45:14;;;;;;;;;;;;;;;16.79;100.00;98304.44;4935700;29;19927;-78
2023/08/29 02:47:41;;;;;;;;;;;;;;;16.78;100.00;98300.97;4918704;29;20009;-79
2023/08/29 02:50:07;;;;;;;;;;;;;;;16.86;100.00;98307.06;4935574;29;20017;-79
2023/08/29 02:52:33;;;;;;;;;;;;;;;16.92;100.00;98314.22;4934538;29;20317;-78
2023/08/29 02:54:58;;;;;;;;;;;;;;;16.94;100.00;98314.81;4934010;29;19953;-78
2023/08/29 02:57:23;;;;;;;;;;;;;;;16.97;100.00;98317.03;4918531;29;20431;-77
2023/08/29 02:59:49;;;;;;;;;;;;;;;16.95;100.00;98324.44;4935805;29;20021;-78
2023/08/29 03:02:14;;;;;;;;;;;;;;;16.96;100.00;98332.25;4935122;29;19969;-79
2023/08/29 03:04:40;;;;;;;;;;;;;;;17.03;100.00;98335.66;4934597;29;20372;-78
2023/08/29 03:07:05;;;;;;;;;;;;;;;17.05;100.00;98327.47;4935676;29;19923;-79
2023/08/29 03:09:31;;;;;;;;;;;;;;;17.03;100.00;98329.50;4918663;29;19923;-79
2023/08/29 03:11:57;;;;;;;;;;;;;;;16.92;100.00;98327.53;4933752;29;19923;-77
2023/08/29 03:14:23;;;;;;;;;;;;;;;16.95;100.00;98321.78;4935853;29;19922;-78
2023/08/29 03:16:48;;;;;;;;;;;;;;;16.92;100.00;98316.88;4935528;29;20416;-78
2023/08/29 03:19:15;;;;;;;;;;;;;;;16.90;100.00;98318.94;4917864;29;19930;-79
2023/08/29 03:21:40;;;;;;;;;;;;;;;16.90;100.00;98313.63;4935666;29;19949;-79
2023/08/29 03:24:07;;;;;;;;;;;;;;;16.85;100.00;98306.25;4935334;29;19938;-78
2023/08/29 03:26:32;;;;;;;;;;;;;;;16.83;100.00;98307.50;4934000;29;19930;-78
2023/08/29 03:28:58;;;;;;;;;;;;;;;16.85;100.00;98298.25;4933403;29;19931;-77
2023/08/29 03:31:23;;;;;;;;;;;;;;;16.88;100.00;98299.69;4902395;29;19923;-78
2023/08/29 03:33:49;;;;;;;;;;;;;;;16.81;100.00;98293.56;4935257;29;19982;-77
2023/08/29 03:36:16;;;;;;;;;;;;;;;16.79;100.00;98291.94;4933738;29;19926;-79
2023/08/29 03:38:42;;;;;;;;;;;;;;;16.78;100.00;98295.66;4935094;29;19923;-79
2023/08/29 03:41:07;;;;;;;;;;;;;;;16.73;100.00;98290.13;4951222;23;20014;-71
2023/08/29 03:43:33;;;;;;;;;;;;;;;16.75;100.00;98298.72;4931027;29;20017;-74
2023/08/29 03:46:03;;;;;;;;;;;;;;;16.72;100.00;98301.81;4933896;29;20000;-74
2023/08/29 03:48:30;;;;;;;;;;;;;;;16.75;100.00;98296.06;4934408;29;19970;-73
2023/08/29 03:50:56;;;;;;;;;;;;;;;16.78;100.00;98306.31;4934121;29;19927;-73
2023/08/29 03:53:24;;;;;;;;;;;;;;;16.82;100.00;98308.53;4932839;29;20014;-72
2023/08/29 03:55:50;;;;;;;;;;;;;;;16.82;100.00;98305.88;4934169;29;19930;-73
2023/08/29 03:58:16;;;;;;;;;;;;;;;16.84;100.00;98304.63;4924314;29;19927;-73
2023/08/29 04:00:42;;;;;;;;;;;;;;;16.80;100.00;98308.72;4925687;29;19974;-73
2023/08/29 04:03:07;;;;;;;;;;;;;;;16.84;100.00;98303.81;4922623;29;19923;-72
2023/08/29 04:05:34;;;;;;;;;;;;;;;16.86;100.00;98304.41;4908944;29;19922;-72
2023/08/29 04:08:00;;;;;;;;;;;;;;;16.79;100.00;98302.59;4923294;29;20388;-72
2023/08/29 04:10:25;;;;;;;;;;;;;;;16.85;100.00;98305.44;4923852;29;20022;-72
2023/08/29 04:12:50;;;;;;;;;;;;;;;16.83;100.00;98302.19;4928147;29;20297;-73
2023/08/29 04:15:16;;;;;;;;;;;;;;;16.87;100.00;98306.03;4933532;29;19927;-71
2023/08/29 04:17:41;;;;;;;;;;;;;;;16.88;100.00;98305.84;4933819;29;20376;-72
2023/08/29 04:20:08;;;;;;;;;;;;;;;16.91;100.00;98312.56;4933500;29;20317;-72
2023/08/29 04:22:34;;;;;;;;;;;;;;;16.89;100.00;98317.31;4924709;29;20006;-72
2023/08/29 04:24:59;;;;;;;;;;;;;;;16.89;100.00;98307.47;4921467;29;19923;-72
2023/08/29 04:27:25;;;;;;;;;;;;;;;16.90;100.00;98314.44;4924525;29;20399;-72
2023/08/29 04:29:50;;;;;;;;;;;;;;;16.90;100.00;98324.28;4922512;29;19989;-72
2023/08/29 04:32:15;;;;;;;;;;;;;;;16.91;100.00;98325.88;4923142;29;20368;-72
2023/08/29 04:34:41;;;;;;;;;;;;;;;16.93;100.00;98330.00;4925451;29;19929;-72
2023/08/29 04:37:07;;;;;;;;;;;;;;;16.89;100.00;98327.97;4922102;29;20300;-73
2023/08/29 04:39:32;;;;;;;;;;;;;;;16.92;100.00;98332.84;4925645;29;19927;-74
2023/08/29 04:41:58;;;;;;;;;;;;;;;16.84;100.00;98320.63;4923065;29;19931;-73
2023/08/29 04:44:24;;;;;;;;;;;;;;;16.78;100.00;98327.63;4932212;29;19926;-73
2023/08/29 04:46:49;;;;;;;;;;;;;;;16.81;100.00;98325.53;4932096;29;19923;-73
2023/08/29 04:49:15;;;;;;;;;;;;;;;16.79;100.00;98317.75;4932114;29;19961;-73
2023/08/29 04:51:40;;;;;;;;;;;;;;;16.81;100.00;98304.22;4932095;29;19923;-73
2023/08/29 04:54:06;;;;;;;;;;;;;;;16.77;100.00;98314.50;4933231;29;19938;-73
2023/08/29 04:56:32;;;;;;;;;;;;;;;16.74;100.00;98306.91;4924082;29;19922;-72
2023/08/29 04:58:57;;;;;;;;;;;;;;;16.60;100.00;98300.84;4922922;29;19930;-72
2023/08/29 05:01:23;;;;;;;;;;;;;;;16.56;100.00;98307.56;4923713;29;20033;-72
2023/08/29 05:03:48;;;;;;;;;;;;;;;16.54;100.00;98303.50;4922835;29;19923;-73
2023/08/29 05:06:14;;;;;;;;;;;;;;;16.58;100.00;98300.19;4921157;29;19933;-74
2023/08/29 05:08:39;;;;;;;;;;;;;;;16.56;100.00;98302.25;4924246;29;19922;-71
2023/08/29 05:11:05;;;;;;;;;;;;;;;16.60;100.00;98287.53;4920885;29;19923;-71
2023/08/29 05:13:31;;;;;;;;;;;;;;;16.58;100.00;98294.88;4927880;29;19971;-71
2023/08/29 05:15:56;;;;;;;;;;;;;;;16.62;100.00;98292.63;4921566;29;19931;-71
2023/08/29 05:18:21;;;;;;;;;;;;;;;16.67;100.00;98288.28;4929073;29;19930;-71
2023/08/29 05:20:47;;;;;;;;;;;;;;;16.68;100.00;98289.94;4931119;29;20395;-69
2023/08/29 05:23:12;;;;;;;;;;;;;;;16.68;100.00;98287.28;4930505;29;19927;-73
2023/08/29 05:25:39;;;;;;;;;;;;;;;16.64;100.00;98294.06;4927807;29;19958;-72
2023/08/29 05:28:05;;;;;;;;;;;;;;;16.66;100.00;98289.34;4931398;29;19926;-71
2023/08/29 05:30:31;;;;;;;;;;;;;;;16.71;100.00;98278.88;4933214;29;19950;-72
2023/08/29 05:32:56;;;;;;;;;;;;;;;16.69;100.00;98280.91;4932556;29;19930;-71
2023/08/29 05:35:21;;;;;;;;;;;;;;;16.72;100.00;98283.19;4933509;29;19931;-72
2023/08/29 05:37:46;;;;;;;;;;;;;;;16.63;100.00;98287.09;4932628;29;19923;-70
2023/08/29 05:40:12;;;;;;;;;;;;;;;16.62;100.00;98288.13;4930410;29;19949;-71
2023/08/29 05:42:37;;;;;;;;;;;;;;;16.61;100.00;98288.34;4940696;29;19930;-71
2023/08/29 05:45:03;;;;;;;;;;;;;;;16.63;100.00;98280.94;4931784;29;20443;-71
2023/08/29 05:47:28;;;;;;;;;;;;;;;16.65;100.00;98274.41;4932229;29;19954;-72
2023/08/29 05:49:53;;;;;;;;;;;;;;;16.63;100.00;98281.78;4932992;29;19923;-71
2023/08/29 05:52:19;;;;;;;;;;;;;;;16.57;100.00;98282.59;4933135;29;19922;-71
2023/08/29 05:54:44;;;;;;;;;;;;;;;16.58;100.00;98278.91;4936711;29;20355;-69
2023/08/29 05:57:09;;;;;;;;;;;;;;;16.58;100.00;98283.41;4935751;29;19930;-69
2023/08/29 05:59:35;;;;;;;;;;;;;;;16.56;100.00;98280.13;4936992;29;20331;-71
2023/08/29 06:02:00;;;;;;;;;;;;;;;16.58;100.00;98281.56;4936175;29;19946;-71
2023/08/29 06:04:25;;;;;;;;;;;;;;;16.56;100.00;98278.28;4935572;29;19926;-71
2023/08/29 06:06:51;;;;;;;;;;;;;;;16.49;100.00;98282.84;4937161;28;19965;-72
2023/08/29 06:09:17;;;;;;;;;;;;;;;16.51;100.00;98267.44;4935753;29;19923;-71
2023/08/29 06:11:42;;;;;;;;;;;;;;;16.54;100.00;98267.03;4936573;29;19970;-70
2023/08/29 06:14:08;;;;;;;;;;;;;;;16.59;100.00;98275.25;4935612;29;20478;-72
2023/08/29 06:16:33;;;;;;;;;;;;;;;16.58;100.00;98278.06;4936343;29;19977;-71
2023/08/29 06:18:58;;;;;;;;;;;;;;;16.60;100.00;98276.88;4950869;29;19931;-71
2023/08/29 06:21:24;;;;;;;;;;;;;;;16.65;100.00;98274.41;4936222;29;19931;-71
2023/08/29 06:23:49;;;;;;;;;;;;;;;16.66;100.00;98277.88;4935988;29;19931;-70
2023/08/29 06:26:15;;;;;;;;;;;;;;;16.64;100.00;98271.94;4935504;29;19923;-70
2023/08/29 06:28:41;;;;;;;;;;;;;;;16.68;100.00;98273.94;4951100;28;19923;-71
2023/08/29 06:31:10;;;;;;;;;;;;;;;16.63;100.00;98286.28;4936344;29;20028;-70
2023/08/29 06:33:35;;;;;;;;;;;;;;;16.69;100.00;98283.59;4932542;29;19922;-70
2023/08/29 06:36:01;;;;;;;;;;;;;;;16.69;100.00;98270.28;4935315;29;20322;-72
2023/08/29 06:38:26;;;;;;;;;;;;;;;16.73;100.00;98282.13;4935967;29;19922;-74
2023/08/29 06:40:55;;;;;;;;;;;;;;;16.77;100.00;98275.38;4935624;29;19938;-73
2023/08/29 06:43:20;;;;;;;;;;;;;;;16.78;100.00;98278.84;4946647;28;20099;-71
2023/08/29 06:45:46;;;;;;;;;;;;;;;16.85;100.00;98284.13;4935632;29;20490;-72
2023/08/29 06:48:11;;;;;;;;;;;;;;;16.86;100.00;98275.09;4934828;29;19922;-72
2023/08/29 06:50:36;;;;;;;;;;;;;;;16.87;100.00;98282.88;4934877;29;20295;-71
2023/08/29 06:53:03;;;;;;;;;;;;;;;16.90;100.00;98279.81;4934792;29;19998;-72
2023/08/29 06:55:31;;;;;;;;;;;;;;;17.00;100.00;98280.16;4934961;28;20021;-73
2023/08/29 06:57:57;;;;;;;;;;;;;;;17.01;100.00;98278.28;4935266;29;20086;-73
2023/08/29 07:00:23;;;;;;;;;;;;;;;17.11;100.00;98283.97;4936324;29;20013;-72
2023/08/29 07:02:50;;;;;;;;;;;;;;;17.20;100.00;98288.00;4934894;29;19930;-71
2023/08/29 07:05:16;;;;;;;;;;;;;;;17.25;100.00;98290.84;4933449;29;19927;-72
2023/08/29 07:07:41;;;;;;;;;;;;;;;17.31;100.00;98295.31;4935309;29;19970;-72
2023/08/29 07:10:06;;;;;;;;;;;;;;;17.31;100.00;98290.00;4935171;29;20037;-72
2023/08/29 07:12:32;;;;;;;;;;;;;;;17.39;100.00;98289.72;4935477;29;19922;-71
2023/08/29 07:14:58;;;;;;;;;;;;;;;17.46;100.00;98293.16;4935271;29;19927;-72
2023/08/29 07:17:24;;;;;;;;;;;;;;;17.48;100.00;98291.09;4934718;29;19923;-72
2023/08/29 07:19:49;;;;;;;;;;;;;;;17.52;100.00;98294.94;4934262;29;19923;-73
2023/08/29 07:22:16;;;;;;;;;;;;;;;17.55;100.00;98283.81;4934260;29;20402;-73
2023/08/29 07:24:42;;;;;;;;;;;;;;;17.52;100.00;98284.28;4949687;29;19970;-73
2023/08/29 07:27:07;;;;;;;;;;;;;;;17.52;100.00;98297.59;4934734;29;19923;-73
2023/08/29 07:29:32;;;;;;;;;;;;;;;17.52;100.00;98286.94;4935069;29;19922;-72
2023/08/29 07:31:58;;;;;;;;;;;;;;;17.51;100.00;98295.97;4934100;29;20021;-74
2023/08/29 07:34:24;;;;;;;;;;;;;;;17.54;100.00;98295.56;4934584;29;19978;-70
2023/08/29 07:36:49;;;;;;;;;;;;;;;17.55;100.00;98296.38;4935029;29;20043;-72
2023/08/29 07:39:18;;;;;;;;;;;;;;;17.59;100.00;98298.38;4933370;29;19926;-73
2023/08/29 07:41:44;;;;;;;;;;;;;;;17.62;100.00;98305.16;4934617;29;19930;-74
2023/08/29 07:44:10;;;;;;;;;;;;;;;17.64;100.00;98299.59;4934090;29;19923;-74
2023/08/29 07:46:35;;;;;;;;;;;;;;;17.71;100.00;98300.38;4934419;29;19970;-72
2023/08/29 07:49:02;;;;;;;;;;;;;;;17.74;100.00;98299.91;4934568;29;20017;-73
2023/08/29 07:51:27;;;;;;;;;;;;;;;17.74;100.00;98302.56;4935426;29;19923;-73
2023/08/29 07:53:53;;;;;;;;;;;;;;;17.77;100.00;98304.81;4934524;29;20006;-73
2023/08/29 07:56:18;;;;;;;;;;;;;;;17.83;100.00;98309.28;4934481;29;19923;-74
2023/08/29 07:58:46;;;;;;;;;;;;;;;17.85;100.00;98309.88;4934632;29;19942;-74
2023/08/29 08:01:11;;;;;;;;;;;;;;;17.95;100.00;98318.22;4934068;29;19927;-74
2023/08/29 08:03:38;;;;;;;;;;;;;;;18.01;100.00;98317.34;4917044;29;19930;-75
2023/08/29 08:06:03;;;;;;;;;;;;;;;18.13;100.00;98323.56;4933963;29;19923;-75
2023/08/29 08:08:28;;;;;;;;;;;;;;;18.23;100.00;98325.72;4934105;29;20009;-72
2023/08/29 08:10:54;;;;;;;;;;;;;;;18.32;100.00;98325.19;4932648;29;19923;-74
2023/08/29 08:13:19;;;;;;;;;;;;;;;18.39;100.00;98317.94;4934272;29;20021;-74
2023/08/29 08:15:44;;;;;;;;;;;;;;;18.45;100.00;98328.78;4933309;29;19951;-72
2023/08/29 08:18:10;;;;;;;;;;;;;;;18.50;100.00;98331.59;4934017;29;19926;-73
2023/08/29 08:20:35;;;;;;;;;;;;;;;18.48;100.00;98339.03;4934032;29;19923;-74
2023/08/29 08:23:00;;;;;;;;;;;;;;;18.56;100.00;98330.72;4933913;29;19978;-76
2023/08/29 08:25:26;;;;;;;;;;;;;;;18.64;100.00;98343.78;4933955;29;20013;-76
2023/08/29 08:27:51;;;;;;;;;;;;;;;18.74;100.00;98344.06;4934216;29;19926;-75
2023/08/29 08:30:17;;;;;;;;;;;;;;;18.79;100.00;98342.38;4932852;29;19974;-75
2023/08/29 08:32:43;;;;;;;;;;;;;;;18.86;100.00;98336.13;4916399;29;20328;-74
2023/08/29 08:35:09;;;;;;;;;;;;;;;18.98;100.00;98339.66;4932077;29;20013;-74
2023/08/29 08:37:35;;;;;;;;;;;;;;;19.06;100.00;98342.03;4930048;29;19923;-72
2023/08/29 08:40:01;;;;;;;;;;;;;;;19.14;100.00;98344.41;4930741;29;19918;-73
2023/08/29 08:42:27;;;;;;;;;;;;;;;19.21;100.00;98348.59;4933791;29;19926;-73
2023/08/29 08:44:53;;;;;;;;;;;;;;;19.30;100.00;98343.75;4933405;29;19923;-73
2023/08/29 08:47:19;;;;;;;;;;;;;;;19.41;100.00;98344.84;4932955;29;19974;-74
2023/08/29 08:49:45;;;;;;;;;;;;;;;19.40;100.00;98349.38;4933997;29;20025;-74
2023/08/29 08:52:11;;;;;;;;;;;;;;;19.47;100.00;98343.94;4916057;29;20504;-77
2023/08/29 08:54:37;;;;;;;;;;;;;;;19.51;100.00;98353.13;4934268;29;20089;-77
2023/08/29 08:57:03;;;;;;;;;;;;;;;19.61;100.00;98362.22;4933061;29;19944;-74
2023/08/29 08:59:29;;;;;;;;;;;;;;;19.70;100.00;98360.06;4932064;29;20556;-75
2023/08/29 09:01:55;;;;;;;;;;;;;;;19.86;100.00;98369.25;4932057;29;19929;-74
2023/08/29 09:04:20;;;;;;;;;;;;;;;20.00;100.00;98370.69;4933964;29;19929;-74
2023/08/29 09:06:46;;;;;;;;;;;;;;;20.11;100.00;98363.69;4933797;29;20426;-75
2023/08/29 09:09:18;;;;;;;;;;;;;;;20.21;100.00;98366.59;4933585;29;20391;-76
2023/08/29 09:11:50;;;;;;;;;;;;;;;20.30;100.00;98359.88;4930015;29;19919;-74
2023/08/29 09:14:15;;;;;;;;;;;;;;;20.38;100.00;98362.22;4930731;29;19970;-74
2023/08/29 09:16:42;;;;;;;;;;;;;;;20.47;100.00;98355.44;4930005;29;20368;-75
2023/08/29 09:19:07;;;;;;;;;;;;;;;20.54;100.00;98344.59;4932849;29;20054;-74
2023/08/29 09:21:33;;;;;;;;;;;;;;;20.61;100.00;98350.66;4932834;29;20010;-75
2023/08/29 09:23:58;;;;;;;;;;;;;;;20.71;100.00;98351.69;4932490;29;19965;-76
2023/08/29 09:26:29;;;;;;;;;;;;;;;20.78;100.00;98352.38;4933371;29;20265;-76
2023/08/29 09:28:54;;;;;;;;;;;;;;;20.87;100.00;98352.78;4936222;29;20331;-75
2023/08/29 09:31:20;;;;;;;;;;;;;;;20.89;100.00;98350.69;4935466;29;19942;-75
2023/08/29 09:33:46;;;;;;;;;;;;;;;20.91;100.00;98353.16;4936512;29;19923;-75
2023/08/29 09:36:12;;;;;;;;;;;;;;;20.94;100.00;98349.97;4936169;29;19931;-76
2023/08/29 09:38:40;;;;;;;;;;;;;;;20.96;100.00;98354.06;4936464;29;19923;-75
2023/08/29 09:41:11;;;;;;;;;;;;;;;21.06;100.00;98361.47;4936065;29;19929;-75
2023/08/29 09:43:44;;;;;;;;;;;;;;;21.14;100.00;98358.44;4936003;29;19930;-75
2023/08/29 09:46:10;;;;;;;;;;;;;;;21.19;100.00;98355.88;4932351;29;19934;-75
2023/08/29 09:48:35;;;;;;;;;;;;;;;21.22;100.00;98360.75;4934814;29;19977;-75
2023/08/29 09:51:01;;;;;;;;;;;;;;;21.31;100.00;98356.63;4934449;29;19962;-74
2023/08/29 09:53:28;;;;;;;;;;;;;;;21.37;100.00;98354.84;4936102;29;19934;-75
2023/08/29 09:56:05;;;;;;;;;;;;;;;21.45;100.00;98357.94;4936116;29;20009;-74
2023/08/29 09:58:32;;;;;;;;;;;;;;;21.55;100.00;98352.78;4934679;29;20110;-74
2023/08/29 10:01:00;;;;;;;;;;;;;;;21.55;100.00;98358.16;4935324;29;19977;-74
2023/08/29 10:03:25;;;;;;;;;;;;;;;21.54;100.00;98369.13;4935783;29;20399;-74
2023/08/29 10:05:51;;;;;;;;;;;;;;;21.40;100.00;98365.09;4935685;29;19955;-74
2023/08/29 10:08:19;;;;;;;;;;;;;;;21.29;100.00;98364.09;4935465;29;20017;-73
2023/08/29 10:10:46;;;;;;;;;;;;;;;21.26;100.00;98359.22;4934250;29;19923;-74
2023/08/29 10:13:11;;;;;;;;;;;;;;;21.30;100.00;98360.38;4935172;29;19964;-74
2023/08/29 10:15:39;;;;;;;;;;;;;;;21.32;100.00;98352.09;4935171;29;19951;-75
2023/08/29 10:18:05;;;;;;;;;;;;;;;21.33;100.00;98359.88;4935083;29;19930;-75
2023/08/29 10:20:32;;;;;;;;;;;;;;;21.42;100.00;98358.44;4936046;29;20026;-75
2023/08/29 10:22:59;;;;;;;;;;;;;;;21.50;100.00;98355.34;4935663;29;19927;-74
2023/08/29 10:25:27;;;;;;;;;;;;;;;21.58;100.00;98359.50;4936005;29;19985;-74
2023/08/29 10:27:53;;;;;;;;;;;;;;;21.46;100.00;98364.13;4936156;29;20383;-75
2023/08/29 10:30:19;;;;;;;;;;;;;;;21.45;100.00;98357.94;4935231;29;19927;-75
2023/08/29 10:32:46;;;;;;;;;;;;;;;21.50;100.00;98352.66;4935736;29;19923;-75
2023/08/29 10:35:18;;;;;;;;;;;;;;;21.49;100.00;98359.13;4918322;29;19974;-76
2023/08/29 10:37:44;;;;;;;;;;;;;;;21.50;100.00;98357.25;4935328;29;19929;-74
2023/08/29 10:40:11;;;;;;;;;;;;;;;21.49;100.00;98353.75;4933742;29;19923;-73
2023/08/29 10:42:50;;;;;;;;;;;;;;;21.57;100.00;98356.00;4934555;29;20373;-73
2023/08/29 10:45:16;;;;;;;;;;;;;;;21.65;100.00;98358.31;4932783;29;19930;-73
2023/08/29 10:47:45;;;;;;;;;;;;;;;21.67;100.00;98365.31;4935338;29;19923;-73
2023/08/29 10:50:19;;;;;;;;;;;;;;;21.76;100.00;98369.22;4935336;29;19934;-73
2023/08/29 10:52:44;;;;;;;;;;;;;;;21.73;100.00;98358.97;4935153;29;20422;-74
2023/08/29 10:55:22;;;;;;;;;;;;;;;21.79;100.00;98358.00;4934985;29;19923;-72
2023/08/29 10:57:48;;;;;;;;;;;;;;;21.92;100.00;98358.47;4935453;29;19923;-74
2023/08/29 11:00:18;;;;;;;;;;;;;;;22.02;100.00;98352.50;4934881;29;20264;-74
2023/08/29 11:02:43;;;;;;;;;;;;;;;22.13;100.00;98350.78;4934766;29;20435;-74
2023/08/29 11:05:10;;;;;;;;;;;;;;;22.23;100.00;98349.03;4934721;29;19922;-73
2023/08/29 11:07:36;;;;;;;;;;;;;;;22.28;100.00;98351.78;4935032;29;20391;-73
2023/08/29 11:10:14;;;;;;;;;;;;;;;22.33;100.00;98338.44;4934805;29;19923;-74
2023/08/29 11:12:58;;;;;;;;;;;;;;;22.40;100.00;98344.44;4931778;29;19923;-73
2023/08/29 11:15:43;;;;;;;;;;;;;;;22.48;100.00;98345.09;4926602;29;19923;-73
2023/08/29 11:18:18;;;;;;;;;;;;;;;22.53;99.97;98345.16;4934194;29;20009;-73
2023/08/29 11:20:43;;;;;;;;;;;;;;;22.53;100.00;98334.41;4931995;29;20368;-74
2023/08/29 11:23:11;;;;;;;;;;;;;;;22.53;98.76;98331.69;4934306;29;19923;-74
2023/08/29 11:25:37;;;;;;;;;;;;;;;22.51;95.20;98328.44;4934981;29;20327;-73
2023/08/29 11:28:03;;;;;;;;;;;;;;;22.55;95.16;98337.66;4934521;29;19930;-74
2023/08/29 11:30:28;;;;;;;;;;;;;;;22.62;88.89;98338.28;4934737;29;20296;-73
2023/08/29 11:32:54;;;;;;;;;;;;;;;22.65;83.75;98335.09;4933557;29;19935;-73
2023/08/29 11:35:19;;;;;;;;;;;;;;;22.71;78.46;98347.53;4933794;29;20047;-73
2023/08/29 11:37:44;;;;;;;;;;;;;;;22.73;76.71;98340.06;4933698;29;19922;-73
2023/08/29 11:40:10;;;;;;;;;;;;;;;22.79;74.37;98341.75;4933482;29;20025;-73
2023/08/29 11:42:35;;;;;;;;;;;;;;;22.84;76.59;98342.63;4931987;29;19923;-74
2023/08/29 11:45:05;;;;;;;;;;;;;;;22.90;80.20;98343.50;4933530;29;19930;-74
2023/08/29 11:47:30;;;;;;;;;;;;;;;22.98;81.47;98344.91;4933977;29;19943;-74
2023/08/29 11:49:56;;;;;;;;;;;;;;;23.08;82.83;98353.13;4933139;29;19931;-73
2023/08/29 11:52:21;;;;;;;;;;;;;;;23.16;82.19;98350.78;4933242;29;19949;-73
2023/08/29 11:54:52;;;;;;;;;;;;;;;23.20;80.34;98349.22;4933573;29;19926;-73
2023/08/29 11:57:17;;;;;;;;;;;;;;;23.34;81.13;98349.63;4933364;29;19930;-73
2023/08/29 11:59:43;;;;;;;;;;;;;;;23.45;84.00;98350.53;4932230;29;19922;-74
2023/08/29 12:02:16;;;;;;;;;;;;;;;23.64;84.97;98354.50;4933242;29;19930;-73
2023/08/29 12:04:42;;;;;;;;;;;;;;;23.66;77.02;98352.38;4924628;29;19922;-73
2023/08/29 12:07:11;;;;;;;;;;;;;;;23.69;75.68;98351.88;4920300;29;20347;-74
2023/08/29 12:09:38;;;;;;;;;;;;;;;23.76;76.29;98347.09;4933306;29;19926;-73
2023/08/29 12:12:05;;;;;;;;;;;;;;;23.84;76.46;98348.50;4933020;29;20013;-73
2023/08/29 12:14:31;;;;;;;;;;;;;;;23.98;77.22;98347.78;4933402;29;20404;-74
2023/08/29 12:16:56;;;;;;;;;;;;;;;24.18;75.28;98343.63;4933055;29;19964;-74
2023/08/29 12:19:21;;;;;;;;;;;;;;;24.27;77.36;98350.19;4932973;29;20017;-73
2023/08/29 12:21:53;;;;;;;;;;;;;;;24.32;76.55;98334.03;4930868;29;19926;-74
2023/08/29 12:24:20;;;;;;;;;;;;;;;24.43;75.69;98335.72;4930836;29;19936;-74
2023/08/29 12:26:45;;;;;;;;;;;;;;;24.64;71.46;98337.44;4930979;29;19966;-75
2023/08/29 12:29:10;;;;;;;;;;;;;;;24.84;71.21;98332.13;4932160;29;19973;-74
2023/08/29 12:31:36;;;;;;;;;;;;;;;25.02;69.30;98332.75;4933469;29;19926;-74
2023/08/29 12:34:01;;;;;;;;;;;;;;;25.21;68.51;98331.19;4931303;29;19923;-73